Flight Track Log - Related Links

Times and Time Zones

All times are in EST time to prevent confusion due to time zone crossing. See the FTH24 flight status page for this flight to view local times or setup timezone preferences in your user account.

Time Position Orientation Groundspeed Altitude Reporting Facility
EST Latitude Longitude Course Direction KTS MPH feet Rate Location/Type
Wed 04:48:14 PM 33.2167 -97.2000 345° North 139 160 1,300  Level Dallas / Fort Worth TRACON
Wed 04:50:24 PM 33.3186 -97.2317 345° North 179 206 6,100 2,281 Climbing Fort Worth Center
Wed 04:51:26 PM 33.3714 -97.2253 North 175 201 8,600 1,887 Climbing Fort Worth Center
Wed 04:52:28 PM 33.4242 -97.2056 17° North 203 234 10,000 871 Climbing Fort Worth Center
Wed 04:53:30 PM 33.4986 -97.1828 14° North 256 295 10,400 1,258 Climbing Fort Worth Center
Wed 04:54:32 PM 33.5706 -97.1606 14° North 267 307 12,600 2,710 Climbing Fort Worth Center
Wed 04:55:34 PM 33.6336 -97.1425 13° North 216 249 16,000 2,592 Climbing Fort Worth Center
Wed 04:56:37 PM 33.6875 -97.1350 North 198 228 18,000 1,920 Climbing Fort Worth Center
Wed 04:57:39 PM 33.7547 -97.1267 North 222 255 20,000 1,935 Climbing Fort Worth Center
Wed 04:58:41 PM 33.8175 -97.1214 North 225 259 22,000 1,935 Climbing Fort Worth Center
Wed 04:59:43 PM 33.8811 -97.0972 18° North 236 272 24,000 1,839 Climbing Fort Worth Center
Wed 05:00:45 PM 33.9475 -97.0708 18° North 248 285 25,800 1,440 Climbing Fort Worth Center
Wed 05:01:48 PM 34.0169 -97.0397 20° North 260 299 27,000 576 Climbing Fort Worth Center
Wed 05:02:50 PM 34.0844 -96.9797 36° Northeast 312 359 27,000  Level Fort Worth Center
Wed 05:03:52 PM 34.1175 -96.8686 70° East 325 374 27,000  Level Fort Worth Center
Wed 05:04:54 PM 34.1675 -96.7717 58° Northeast 349 402 27,000  Level Fort Worth Center
Wed 05:05:56 PM 34.2869 -96.7244 18° North 375 432 27,000  Level Fort Worth Center
Wed 05:06:58 PM 34.3803 -96.6956 14° North 353 406 27,000  Level Fort Worth Center
Wed 05:08:00 PM 34.4700 -96.6711 13° North 334 384 27,000  Level Fort Worth Center
Wed 05:09:02 PM 34.5542 -96.6492 12° North 317 365 27,000  Level Fort Worth Center
Wed 05:10:04 PM 34.6356 -96.6333 North 303 349 27,000  Level Fort Worth Center
Wed 05:11:07 PM 34.6842 -96.6958 313° West 268 308 27,000  Level Fort Worth Center
Wed 05:12:09 PM 34.7119 -96.7911 290° West 255 293 27,000 -484 Level Fort Worth Center
Wed 05:13:11 PM 34.7347 -96.8731 289° West 255 293 26,000 -1,452 Descending Fort Worth Center
Wed 05:14:13 PM 34.7408 -96.9694 274° West 298 343 24,000 -1,790 Descending Fort Worth Center
Wed 05:15:15 PM 34.6817 -97.0417 225° Southwest 300 345 22,300 -1,887 Descending Fort Worth Center
Wed 05:16:17 PM 34.6125 -97.1217 224° Southwest 337 388 20,100 -2,177 Descending Fort Worth Center
Wed 05:17:19 PM 34.5456 -97.1992 224° Southwest 336 387 17,800 -2,371 Descending Fort Worth Center
Wed 05:18:21 PM 34.4703 -97.2844 223° Southwest 315 362 15,200 -2,208 Descending Fort Worth Center
Wed 05:19:24 PM 34.4103 -97.3531 223° Southwest 303 349 13,200 -1,920 Descending Fort Worth Center
Wed 05:20:26 PM 34.3508 -97.4214 224° Southwest 300 345 11,200 -1,065 Descending Fort Worth Center
Wed 05:21:28 PM 34.2817 -97.4622 206° Southwest 297 342 11,000 -97 Descending Fort Worth Center
Wed 05:22:30 PM 34.2022 -97.4628 180° South 288 331 11,000  Level Fort Worth Center
Wed 05:23:32 PM 34.1231 -97.4636 180° South 287 330 11,000  Level Fort Worth Center
Wed 05:24:34 PM 34.0347 -97.4633 180° South 288 331 11,000  Level Fort Worth Center
Wed 05:25:36 PM 33.9525 -97.4639 180° South 292 336 11,000  Level Fort Worth Center
Wed 05:26:38 PM 33.8528 -97.4661 181° South 296 341 11,000  Level Fort Worth Center
Wed 05:27:40 PM 33.7872 -97.4642 179° South 296 341 11,000 -816 Level Fort Worth Center
Wed 05:28:43 PM 33.6894 -97.4650 180° South 295 339 9,300 -1,680 Descending Fort Worth Center
Wed 05:29:45 PM 33.6108 -97.4661 181° South 289 333 7,500 -1,887 Descending Fort Worth Center
Wed 05:30:47 PM 33.5181 -97.4664 180° South 287 330 5,400 -1,645 Descending Fort Worth Center
Wed 05:31:49 PM 33.4439 -97.4606 176° South 272 313 4,100 -677 Descending Fort Worth Center
Wed 05:32:51 PM 33.3806 -97.4011 142° Southeast 270 311 4,000 -532 Descending Fort Worth Center
Wed 05:33:53 PM 33.3236 -97.3461 141° Southeast 265 305 3,000 -476 Descending Fort Worth Center
Wed 05:34:57 PM 33.2667 -97.2833 137° Southeast 224 258 3,000 -390 Level Dallas / Fort Worth TRACON
Wed 05:35:56 PM 33.2333 -97.2500 140° Southeast 195 224 2,200 -450 Descending Dallas / Fort Worth TRACON
Wed 05:36:57 PM 33.1833 -97.2333 164° South 152 175 2,100 -248 Descending Dallas / Fort Worth TRACON
Wed 05:37:57 PM 33.1667 -97.2167 140° Southeast 126 145 1,700 -400 Descending Dallas / Fort Worth TRACON
Wed 05:41:00 PM 33.2021 -97.1980 172° South  Level Estimated

Login

Don't have an account? Register now (free) for customized features, flight alerts, and more!